Time;durP1;ratioP1;P1;durP2;ratioP2;P2;SDS_P1;SDS_P2;PMS_P1;PMS_P2;Temp;Humidity;BMP_temperature;BMP_pressure;BME280_temperature;BME280_humidity;BME280_pressure;Samples;Min_cycle;Max_cycle;Signal;HPM_P1;HPM_P2
2024/01/21 00:00:07;;;;;;;;;;;-1.30;100.00;;;;;;5023621;28;19936;-64
2024/01/21 00:02:35;;;;;;;;;;;-1.20;100.00;;;;;;5022994;28;19929;-64
2024/01/21 00:05:01;;;;;;;;;;;-1.20;100.00;;;;;;5022025;28;19999;-64
2024/01/21 00:07:28;;;;;;;;;;;-1.20;100.00;;;;;;5023626;28;19984;-64
2024/01/21 00:09:55;;;;;;;;;;;-1.30;100.00;;;;;;5023500;28;20022;-64
2024/01/21 00:12:22;;;;;;;;;;;-1.30;100.00;;;;;;5015714;28;19956;-64
2024/01/21 00:14:49;;;;;;;;;;;-1.40;100.00;;;;;;5025504;28;19935;-65
2024/01/21 00:17:17;;;;;;;;;;;-1.40;100.00;;;;;;5024284;28;19936;-64
2024/01/21 00:19:43;;;;;;;;;;;-1.40;100.00;;;;;;5008619;28;19925;-64
2024/01/21 00:22:10;;;;;;;;;;;-1.30;100.00;;;;;;5010248;28;19929;-64
2024/01/21 00:24:37;;;;;;;;;;;-1.30;100.00;;;;;;5019728;28;19929;-64
2024/01/21 00:27:04;;;;;;;;;;;-1.20;100.00;;;;;;5018345;28;19960;-64
2024/01/21 00:29:31;;;;;;;;;;;-1.30;100.00;;;;;;5016659;28;19960;-63
2024/01/21 00:31:57;;;;;;;;;;;-1.20;100.00;;;;;;5022826;28;19937;-64
2024/01/21 00:34:24;;;;;;;;;;;-1.20;100.00;;;;;;5023685;28;19929;-64
2024/01/21 00:36:53;;;;;;;;;;;-1.20;100.00;;;;;;5023562;28;19936;-64
2024/01/21 00:39:19;;;;;;;;;;;-1.20;100.00;;;;;;5024903;28;19928;-64
2024/01/21 00:41:46;;;;;;;;;;;-1.20;100.00;;;;;;5023153;28;19945;-64
2024/01/21 00:44:30;;;;;;;;;;;-1.20;100.00;;;;;;5023514;28;19929;-64
2024/01/21 00:46:57;;;;;;;;;;;-1.20;100.00;;;;;;5024321;28;20420;-64
2024/01/21 00:49:24;;;;;;;;;;;-1.30;100.00;;;;;;5022146;28;20028;-64
2024/01/21 00:51:52;;;;;;;;;;;-1.30;100.00;;;;;;5024195;28;20028;-64
2024/01/21 00:54:18;;;;;;;;;;;-1.20;100.00;;;;;;5024195;28;20032;-64
2024/01/21 00:56:45;;;;;;;;;;;-1.20;100.00;;;;;;5024087;28;20007;-64
2024/01/21 00:59:12;;;;;;;;;;;-1.20;100.00;;;;;;5018992;28;19959;-64
2024/01/21 01:01:39;;;;;;;;;;;-1.20;100.00;;;;;;5023073;28;19938;-64
2024/01/21 01:04:06;;;;;;;;;;;-1.30;100.00;;;;;;5023745;28;19936;-64
2024/01/21 01:06:33;;;;;;;;;;;-1.30;100.00;;;;;;5022466;28;20962;-64
2024/01/21 01:09:00;;;;;;;;;;;-1.30;100.00;;;;;;5023922;28;19929;-64
2024/01/21 01:11:27;;;;;;;;;;;-1.30;100.00;;;;;;5024272;28;20030;-64
2024/01/21 01:13:54;;;;;;;;;;;-1.30;100.00;;;;;;5023502;28;19936;-64
2024/01/21 01:16:22;;;;;;;;;;;-1.30;100.00;;;;;;5024299;28;19929;-64
2024/01/21 01:18:49;;;;;;;;;;;-1.30;100.00;;;;;;5024308;28;19936;-64
2024/01/21 01:21:16;;;;;;;;;;;-1.40;100.00;;;;;;5024513;28;19925;-64
2024/01/21 01:23:43;;;;;;;;;;;-1.40;100.00;;;;;;5024119;28;19961;-64
2024/01/21 01:26:10;;;;;;;;;;;-1.40;100.00;;;;;;5024052;28;19933;-64
2024/01/21 01:28:37;;;;;;;;;;;-1.40;100.00;;;;;;5022657;28;19936;-64
2024/01/21 01:31:07;;;;;;;;;;;-1.40;100.00;;;;;;5019727;28;19940;-64
2024/01/21 01:33:33;;;;;;;;;;;-1.40;100.00;;;;;;5038670;28;20020;-64
2024/01/21 01:36:00;;;;;;;;;;;-1.30;100.00;;;;;;5024161;28;19929;-64
2024/01/21 01:38:27;;;;;;;;;;;-1.30;100.00;;;;;;5021903;28;20054;-64
2024/01/21 01:40:54;;;;;;;;;;;-1.30;100.00;;;;;;5024294;28;19941;-64
2024/01/21 01:43:22;;;;;;;;;;;-1.30;100.00;;;;;;5022682;28;19929;-64
2024/01/21 01:45:49;;;;;;;;;;;-1.30;100.00;;;;;;5024040;28;20039;-63
2024/01/21 01:48:16;;;;;;;;;;;-1.30;100.00;;;;;;5022295;28;20294;-64
2024/01/21 01:50:44;;;;;;;;;;;-1.30;100.00;;;;;;5023670;28;19975;-63
2024/01/21 01:53:11;;;;;;;;;;;-1.30;100.00;;;;;;5022430;28;20345;-64
2024/01/21 01:55:38;;;;;;;;;;;-1.30;100.00;;;;;;5023453;28;20349;-63
2024/01/21 01:58:05;;;;;;;;;;;-1.30;100.00;;;;;;5021651;28;20547;-63
2024/01/21 02:00:32;;;;;;;;;;;-1.30;100.00;;;;;;5021773;28;19933;-63
2024/01/21 02:02:59;;;;;;;;;;;-1.30;100.00;;;;;;5019497;28;19929;-63
2024/01/21 02:05:26;;;;;;;;;;;-1.30;100.00;;;;;;5020871;28;19929;-63
2024/01/21 02:07:52;;;;;;;;;;;-1.30;100.00;;;;;;5019474;28;19930;-63
2024/01/21 02:10:19;;;;;;;;;;;-1.30;100.00;;;;;;5011646;28;20028;-63
2024/01/21 02:12:46;;;;;;;;;;;-1.30;100.00;;;;;;5014041;28;20043;-63
2024/01/21 02:15:13;;;;;;;;;;;-1.30;100.00;;;;;;5019450;28;19929;-63
2024/01/21 02:17:40;;;;;;;;;;;-1.30;100.00;;;;;;5012763;28;19998;-63
2024/01/21 02:20:09;;;;;;;;;;;-1.30;100.00;;;;;;5022542;28;19935;-63
2024/01/21 02:22:38;;;;;;;;;;;-1.30;100.00;;;;;;5010468;28;20662;-64
2024/01/21 02:25:04;;;;;;;;;;;-1.40;100.00;;;;;;5014969;28;19961;-64
2024/01/21 02:27:31;;;;;;;;;;;-1.40;100.00;;;;;;5016530;28;19933;-63
2024/01/21 02:29:58;;;;;;;;;;;-1.40;100.00;;;;;;5016568;28;19933;-65
2024/01/21 02:32:25;;;;;;;;;;;-1.40;100.00;;;;;;5007467;28;19965;-64
2024/01/21 02:34:52;;;;;;;;;;;-1.40;100.00;;;;;;5016652;28;19948;-64
2024/01/21 02:37:19;;;;;;;;;;;-1.40;100.00;;;;;;5010009;28;19929;-64
2024/01/21 02:39:46;;;;;;;;;;;-1.50;100.00;;;;;;5018178;28;19929;-64
2024/01/21 02:42:12;;;;;;;;;;;-1.50;100.00;;;;;;5016592;28;20615;-64
2024/01/21 02:44:39;;;;;;;;;;;-1.50;100.00;;;;;;5017319;28;20466;-64
2024/01/21 02:47:06;;;;;;;;;;;-1.60;100.00;;;;;;5017351;28;20007;-64
2024/01/21 02:49:33;;;;;;;;;;;-1.60;100.00;;;;;;5020879;28;19983;-64
2024/01/21 02:52:00;;;;;;;;;;;-1.70;100.00;;;;;;5021217;28;19936;-64
2024/01/21 02:54:26;;;;;;;;;;;-1.70;100.00;;;;;;5022145;28;19929;-64
2024/01/21 02:56:53;;;;;;;;;;;-1.70;100.00;;;;;;5017803;28;20048;-64
2024/01/21 02:59:20;;;;;;;;;;;-1.80;100.00;;;;;;5015781;28;20633;-64
2024/01/21 03:01:47;;;;;;;;;;;-1.80;100.00;;;;;;5016879;28;20023;-64
2024/01/21 03:04:13;;;;;;;;;;;-1.80;100.00;;;;;;5018401;28;19925;-64
2024/01/21 03:06:40;;;;;;;;;;;-1.70;100.00;;;;;;5016715;28;19991;-64
2024/01/21 03:09:07;;;;;;;;;;;-1.80;100.00;;;;;;5011077;28;20145;-63
2024/01/21 03:11:35;;;;;;;;;;;-1.70;100.00;;;;;;5025582;28;19979;-64
2024/01/21 03:14:02;;;;;;;;;;;-1.70;100.00;;;;;;5020800;28;19933;-63
2024/01/21 03:16:29;;;;;;;;;;;-1.70;100.00;;;;;;5020110;28;19933;-64
2024/01/21 03:18:56;;;;;;;;;;;-1.70;100.00;;;;;;5022267;28;19929;-63
2024/01/21 03:21:22;;;;;;;;;;;-1.70;100.00;;;;;;5020776;28;19935;-63
2024/01/21 03:23:50;;;;;;;;;;;-1.70;100.00;;;;;;5022287;28;19975;-63
2024/01/21 03:26:16;;;;;;;;;;;-1.70;100.00;;;;;;5022657;28;20604;-64
2024/01/21 03:28:43;;;;;;;;;;;-1.70;100.00;;;;;;5024305;28;20517;-64
2024/01/21 03:31:10;;;;;;;;;;;-1.80;100.00;;;;;;5024841;28;19933;-64
2024/01/21 03:33:38;;;;;;;;;;;-1.80;100.00;;;;;;5016645;28;20349;-64
2024/01/21 03:36:05;;;;;;;;;;;-1.80;100.00;;;;;;5021134;28;19929;-63
2024/01/21 03:38:32;;;;;;;;;;;-1.70;100.00;;;;;;5014231;28;19972;-63
2024/01/21 03:40:58;;;;;;;;;;;-1.70;100.00;;;;;;5026498;28;20045;-63
2024/01/21 03:43:26;;;;;;;;;;;-1.80;100.00;;;;;;5023960;28;19929;-63
2024/01/21 03:45:53;;;;;;;;;;;-1.80;100.00;;;;;;5022271;28;19929;-63
2024/01/21 03:48:19;;;;;;;;;;;-1.80;100.00;;;;;;5022053;28;19933;-63
2024/01/21 03:50:46;;;;;;;;;;;-1.90;100.00;;;;;;5026036;28;20333;-63
2024/01/21 03:53:13;;;;;;;;;;;-1.90;100.00;;;;;;5020059;28;19932;-63
2024/01/21 03:55:40;;;;;;;;;;;-1.90;100.00;;;;;;5025429;28;19987;-63
2024/01/21 03:58:06;;;;;;;;;;;-1.90;100.00;;;;;;5023040;28;19929;-63
2024/01/21 04:00:33;;;;;;;;;;;-2.00;100.00;;;;;;5018038;28;19968;-64
2024/01/21 04:03:00;;;;;;;;;;;-1.90;100.00;;;;;;5023903;28;19960;-64
2024/01/21 04:05:27;;;;;;;;;;;-1.90;100.00;;;;;;5024723;28;19936;-64
2024/01/21 04:07:53;;;;;;;;;;;-1.90;100.00;;;;;;5024228;28;19925;-63
2024/01/21 04:10:20;;;;;;;;;;;-1.80;100.00;;;;;;5024858;28;19936;-63
2024/01/21 04:12:47;;;;;;;;;;;-1.80;100.00;;;;;;5020833;28;19929;-64
2024/01/21 04:15:14;;;;;;;;;;;-1.70;100.00;;;;;;5018828;28;19929;-63
2024/01/21 04:17:41;;;;;;;;;;;-1.70;100.00;;;;;;5022221;28;20472;-63
2024/01/21 04:20:09;;;;;;;;;;;-1.70;100.00;;;;;;5022816;28;19933;-63
2024/01/21 04:22:36;;;;;;;;;;;-1.70;100.00;;;;;;5013464;28;19996;-64
2024/01/21 04:25:02;;;;;;;;;;;-1.70;100.00;;;;;;5024919;28;19940;-63
2024/01/21 04:27:29;;;;;;;;;;;-1.60;100.00;;;;;;5020989;28;20028;-63
2024/01/21 04:29:56;;;;;;;;;;;-1.60;100.00;;;;;;5025707;28;19943;-63
2024/01/21 04:32:23;;;;;;;;;;;-1.60;100.00;;;;;;5020920;28;20686;-63
2024/01/21 04:34:49;;;;;;;;;;;-1.60;100.00;;;;;;5018583;28;20487;-64
2024/01/21 04:37:16;;;;;;;;;;;-1.50;100.00;;;;;;5021373;28;19937;-63
2024/01/21 04:39:43;;;;;;;;;;;-1.50;100.00;;;;;;5024181;28;19933;-63
2024/01/21 04:42:10;;;;;;;;;;;-1.40;100.00;;;;;;5016899;28;20047;-63
2024/01/21 04:44:37;;;;;;;;;;;-1.40;100.00;;;;;;5023911;28;19936;-64
2024/01/21 04:47:04;;;;;;;;;;;-1.30;100.00;;;;;;5016378;28;20355;-63
2024/01/21 04:49:31;;;;;;;;;;;-1.20;100.00;;;;;;5020569;28;19938;-63
2024/01/21 04:51:58;;;;;;;;;;;-1.20;100.00;;;;;;5010817;28;20295;-63
2024/01/21 04:54:24;;;;;;;;;;;-1.20;100.00;;;;;;5017762;28;19925;-63
2024/01/21 04:56:51;;;;;;;;;;;-1.20;100.00;;;;;;5023115;28;20046;-64
2024/01/21 04:59:18;;;;;;;;;;;-1.20;100.00;;;;;;5019906;28;19995;-63
2024/01/21 05:01:48;;;;;;;;;;;-1.20;100.00;;;;;;5018721;28;20059;-63
2024/01/21 05:04:15;;;;;;;;;;;-1.20;100.00;;;;;;5020100;28;19987;-63
2024/01/21 05:06:41;;;;;;;;;;;-1.30;100.00;;;;;;5013007;28;19968;-63
2024/01/21 05:09:10;;;;;;;;;;;-1.30;100.00;;;;;;5018666;28;20571;-63
2024/01/21 05:11:38;;;;;;;;;;;-1.30;100.00;;;;;;5016292;28;19933;-63
2024/01/21 05:14:04;;;;;;;;;;;-1.30;100.00;;;;;;5019796;28;19981;-64
2024/01/21 05:16:31;;;;;;;;;;;-1.30;100.00;;;;;;5020412;28;19929;-63
2024/01/21 05:18:58;;;;;;;;;;;-1.40;100.00;;;;;;5018436;28;19941;-63
2024/01/21 05:21:25;;;;;;;;;;;-1.40;100.00;;;;;;5013884;28;19935;-63
2024/01/21 05:23:52;;;;;;;;;;;-1.40;100.00;;;;;;5023396;28;19964;-63
2024/01/21 05:26:19;;;;;;;;;;;-1.30;100.00;;;;;;5018243;28;20378;-63
2024/01/21 05:28:46;;;;;;;;;;;-1.40;100.00;;;;;;5018766;28;20389;-63
2024/01/21 05:31:14;;;;;;;;;;;-1.30;100.00;;;;;;5018876;28;19935;-63
2024/01/21 05:33:41;;;;;;;;;;;-1.30;100.00;;;;;;5017244;28;19930;-63
2024/01/21 05:36:09;;;;;;;;;;;-1.30;100.00;;;;;;5016107;28;19933;-63
2024/01/21 05:38:36;;;;;;;;;;;-1.40;100.00;;;;;;5014572;28;19944;-63
2024/01/21 05:41:03;;;;;;;;;;;-1.30;100.00;;;;;;5013182;28;20476;-63
2024/01/21 05:43:30;;;;;;;;;;;-1.30;100.00;;;;;;5023967;28;20050;-63
2024/01/21 05:45:56;;;;;;;;;;;-1.30;100.00;;;;;;5023997;28;20301;-63
2024/01/21 05:48:24;;;;;;;;;;;-1.30;100.00;;;;;;5018028;28;20020;-63
2024/01/21 05:50:51;;;;;;;;;;;-1.20;100.00;;;;;;5015503;28;19929;-63
2024/01/21 05:53:17;;;;;;;;;;;-1.20;100.00;;;;;;5018373;28;19929;-63
2024/01/21 05:55:45;;;;;;;;;;;-1.20;100.00;;;;;;5018914;28;20020;-63
2024/01/21 05:58:13;;;;;;;;;;;-1.20;100.00;;;;;;5015545;28;19929;-63
2024/01/21 06:00:40;;;;;;;;;;;-1.20;100.00;;;;;;5019045;28;19933;-63
2024/01/21 06:03:07;;;;;;;;;;;-1.10;100.00;;;;;;5015801;28;19936;-63
2024/01/21 06:05:34;;;;;;;;;;;-1.10;100.00;;;;;;5023872;28;19972;-63
2024/01/21 06:08:01;;;;;;;;;;;-1.00;100.00;;;;;;5012939;28;20626;-63
2024/01/21 06:10:27;;;;;;;;;;;-1.00;100.00;;;;;;5017943;28;19929;-63
2024/01/21 06:12:54;;;;;;;;;;;-1.00;100.00;;;;;;5020640;28;20375;-63
2024/01/21 06:15:21;;;;;;;;;;;-1.00;100.00;;;;;;5009403;28;20542;-63
2024/01/21 06:17:51;;;;;;;;;;;-1.00;100.00;;;;;;5011565;28;20011;-63
2024/01/21 06:20:19;;;;;;;;;;;-1.00;100.00;;;;;;5016303;28;19929;-63
2024/01/21 06:22:46;;;;;;;;;;;-0.90;100.00;;;;;;5018674;28;19936;-63
2024/01/21 06:25:12;;;;;;;;;;;-0.90;100.00;;;;;;5022355;28;19979;-63
2024/01/21 06:27:39;;;;;;;;;;;-0.90;100.00;;;;;;5012407;28;20036;-63
2024/01/21 06:30:10;;;;;;;;;;;-0.90;100.00;;;;;;5017378;28;19960;-63
2024/01/21 06:32:37;;;;;;;;;;;-0.80;100.00;;;;;;5015121;28;19933;-63
2024/01/21 06:35:06;;;;;;;;;;;-0.80;100.00;;;;;;5015428;28;19937;-63
2024/01/21 06:37:32;;;;;;;;;;;-0.80;100.00;;;;;;5020742;28;19929;-63
2024/01/21 06:39:59;;;;;;;;;;;-0.70;100.00;;;;;;5023508;28;20015;-63
2024/01/21 06:42:32;;;;;;;;;;;-0.70;100.00;;;;;;5015272;28;19930;-63
2024/01/21 06:44:58;;;;;;;;;;;-0.60;100.00;;;;;;5024734;28;19929;-63
2024/01/21 06:47:25;;;;;;;;;;;-0.60;100.00;;;;;;5021589;28;19961;-63
2024/01/21 06:49:52;;;;;;;;;;;-0.60;100.00;;;;;;5018797;28;19940;-63
2024/01/21 06:52:19;;;;;;;;;;;-0.60;100.00;;;;;;5024631;28;20027;-63
2024/01/21 06:54:46;;;;;;;;;;;-0.50;100.00;;;;;;5018016;28;19940;-63
2024/01/21 06:57:13;;;;;;;;;;;-0.40;100.00;;;;;;5023520;28;19967;-63
2024/01/21 06:59:40;;;;;;;;;;;-0.40;100.00;;;;;;5014447;28;20270;-63
2024/01/21 07:02:07;;;;;;;;;;;-0.40;100.00;;;;;;5020611;28;19976;-63
2024/01/21 07:04:33;;;;;;;;;;;-0.40;100.00;;;;;;5025550;28;19965;-63
2024/01/21 07:07:00;;;;;;;;;;;-0.40;100.00;;;;;;5020905;28;19941;-63
2024/01/21 07:09:28;;;;;;;;;;;-0.40;100.00;;;;;;5020978;28;19929;-63
2024/01/21 07:11:56;;;;;;;;;;;-0.40;100.00;;;;;;5020899;28;19933;-63
2024/01/21 07:14:26;;;;;;;;;;;-0.40;100.00;;;;;;5019967;28;19929;-63
2024/01/21 07:16:53;;;;;;;;;;;-0.40;99.40;;;;;;5020644;28;19929;-63
2024/01/21 07:19:20;;;;;;;;;;;-0.40;100.00;;;;;;5021068;28;20378;-63
2024/01/21 07:21:47;;;;;;;;;;;-0.40;100.00;;;;;;5023172;28;20043;-63
2024/01/21 07:24:13;;;;;;;;;;;-0.40;99.50;;;;;;5020977;28;19936;-64
2024/01/21 07:26:40;;;;;;;;;;;-0.40;99.80;;;;;;5024014;28;19933;-64
2024/01/21 07:29:07;;;;;;;;;;;-0.40;100.00;;;;;;5020117;28;19964;-63
2024/01/21 07:31:34;;;;;;;;;;;-0.30;100.00;;;;;;5020963;28;19929;-64
2024/01/21 07:34:00;;;;;;;;;;;-0.40;100.00;;;;;;5022952;28;20624;-64
2024/01/21 07:36:27;;;;;;;;;;;-0.40;100.00;;;;;;5018354;28;19929;-64
2024/01/21 07:38:54;;;;;;;;;;;-0.30;100.00;;;;;;5023156;28;20040;-62
2024/01/21 07:41:21;;;;;;;;;;;-0.30;100.00;;;;;;5020848;28;19929;-62
2024/01/21 07:43:48;;;;;;;;;;;-0.30;100.00;;;;;;5019104;28;19999;-62
2024/01/21 07:46:15;;;;;;;;;;;-0.30;100.00;;;;;;5017694;28;19983;-63
2024/01/21 07:48:41;;;;;;;;;;;-0.30;98.80;;;;;;5021576;28;19959;-62
2024/01/21 07:51:08;;;;;;;;;;;-0.30;98.40;;;;;;5020058;28;20470;-62
2024/01/21 07:53:35;;;;;;;;;;;-0.30;100.00;;;;;;5019697;28;20003;-63
2024/01/21 07:56:02;;;;;;;;;;;-0.30;100.00;;;;;;5018266;28;19936;-63
2024/01/21 07:58:29;;;;;;;;;;;-0.20;96.50;;;;;;5020183;28;19929;-62
2024/01/21 08:00:56;;;;;;;;;;;-0.30;98.30;;;;;;5018885;28;19933;-63
2024/01/21 08:03:23;;;;;;;;;;;-0.20;100.00;;;;;;5024769;28;19929;-63
2024/01/21 08:05:50;;;;;;;;;;;-0.20;96.10;;;;;;5025553;28;19979;-63
2024/01/21 08:08:17;;;;;;;;;;;-0.20;97.40;;;;;;5026006;28;20046;-63
2024/01/21 08:10:44;;;;;;;;;;;-0.20;96.00;;;;;;5017952;28;19929;-62
2024/01/21 08:13:11;;;;;;;;;;;-0.20;97.60;;;;;;5019240;28;19933;-63
2024/01/21 08:15:38;;;;;;;;;;;-0.20;96.80;;;;;;5020108;28;19929;-64
2024/01/21 08:18:05;;;;;;;;;;;-0.10;100.00;;;;;;5020097;28;19925;-64
2024/01/21 08:20:32;;;;;;;;;;;-0.10;99.50;;;;;;5022099;28;20044;-64
2024/01/21 08:22:58;;;;;;;;;;;-0.10;100.00;;;;;;5021410;28;19975;-64
2024/01/21 08:25:25;;;;;;;;;;;0.00;99.20;;;;;;5019775;28;20673;-64
2024/01/21 08:27:52;;;;;;;;;;;0.00;91.80;;;;;;5020165;28;19999;-64
2024/01/21 08:30:19;;;;;;;;;;;0.00;98.40;;;;;;5022883;28;19936;-64
2024/01/21 08:32:46;;;;;;;;;;;0.00;97.60;;;;;;5025159;28;19929;-64
2024/01/21 08:35:13;;;;;;;;;;;0.00;93.40;;;;;;5021999;28;19929;-64
2024/01/21 08:37:41;;;;;;;;;;;0.10;97.10;;;;;;5019605;28;19936;-64
2024/01/21 08:40:08;;;;;;;;;;;0.10;91.50;;;;;;5022720;28;20002;-64
2024/01/21 08:42:35;;;;;;;;;;;0.10;92.60;;;;;;5018183;28;19968;-64
2024/01/21 08:45:02;;;;;;;;;;;0.10;94.70;;;;;;5023193;28;19933;-64
2024/01/21 08:47:29;;;;;;;;;;;0.20;93.30;;;;;;5015875;28;19933;-64
2024/01/21 08:49:55;;;;;;;;;;;0.20;95.10;;;;;;5020231;28;19933;-64
2024/01/21 08:52:22;;;;;;;;;;;0.20;95.00;;;;;;5014883;28;19936;-64
2024/01/21 08:54:49;;;;;;;;;;;0.20;89.10;;;;;;5020528;28;19964;-64
2024/01/21 08:57:16;;;;;;;;;;;0.30;89.00;;;;;;5026402;28;19929;-64
2024/01/21 08:59:43;;;;;;;;;;;0.30;89.90;;;;;;5030515;28;19936;-64
2024/01/21 09:02:10;;;;;;;;;;;0.30;87.10;;;;;;5026500;28;20047;-63
2024/01/21 09:04:43;;;;;;;;;;;0.50;91.20;;;;;;5029367;28;19933;-63
2024/01/21 09:07:09;;;;;;;;;;;0.50;86.80;;;;;;5023512;28;20304;-63
2024/01/21 09:09:36;;;;;;;;;;;0.60;84.30;;;;;;5023209;28;19945;-64
2024/01/21 09:12:04;;;;;;;;;;;0.60;82.60;;;;;;5020461;28;19937;-64
2024/01/21 09:14:34;;;;;;;;;;;0.70;81.00;;;;;;5020591;28;20332;-64
2024/01/21 09:17:01;;;;;;;;;;;0.70;78.20;;;;;;5019040;28;20027;-64
2024/01/21 09:19:28;;;;;;;;;;;0.80;75.70;;;;;;5021206;28;19936;-64
2024/01/21 09:21:55;;;;;;;;;;;0.90;76.70;;;;;;5023506;28;19999;-64
2024/01/21 09:24:21;;;;;;;;;;;0.90;81.00;;;;;;5021148;28;19940;-64
2024/01/21 09:26:48;;;;;;;;;;;1.00;79.20;;;;;;5021690;28;20060;-65
2024/01/21 09:29:15;;;;;;;;;;;1.10;76.60;;;;;;5021014;28;19936;-64
2024/01/21 09:31:42;;;;;;;;;;;1.10;78.10;;;;;;5016175;28;20019;-65
2024/01/21 09:34:09;;;;;;;;;;;1.20;78.70;;;;;;5018562;28;20003;-64
2024/01/21 09:36:37;;;;;;;;;;;1.30;76.10;;;;;;5017257;28;19930;-64
2024/01/21 09:39:05;;;;;;;;;;;1.40;78.90;;;;;;5014120;28;19929;-64
2024/01/21 09:41:42;;;;;;;;;;;1.40;73.40;;;;;;5015754;28;19933;-64
2024/01/21 09:44:10;;;;;;;;;;;1.50;72.80;;;;;;5018649;28;19965;-64
2024/01/21 09:46:37;;;;;;;;;;;1.50;74.50;;;;;;5016027;28;19933;-65
2024/01/21 09:49:06;;;;;;;;;;;1.60;71.90;;;;;;5024514;28;19929;-64
2024/01/21 09:51:36;;;;;;;;;;;1.60;73.00;;;;;;5021651;28;19929;-64
2024/01/21 09:54:06;;;;;;;;;;;1.70;74.30;;;;;;5018485;28;19933;-64
2024/01/21 09:56:34;;;;;;;;;;;1.70;74.00;;;;;;5012971;28;19929;-64
2024/01/21 09:59:01;;;;;;;;;;;1.70;71.30;;;;;;5019039;28;20698;-64
2024/01/21 10:01:28;;;;;;;;;;;1.60;72.90;;;;;;5020770;28;19929;-64
2024/01/21 10:03:55;;;;;;;;;;;1.60;72.40;;;;;;5018879;28;19959;-64
2024/01/21 10:06:22;;;;;;;;;;;1.70;69.20;;;;;;5016178;28;19933;-64
2024/01/21 10:08:49;;;;;;;;;;;1.70;66.80;;;;;;5016040;28;19979;-64
2024/01/21 10:11:16;;;;;;;;;;;1.70;65.80;;;;;;5018916;28;19935;-64
2024/01/21 10:13:44;;;;;;;;;;;1.70;65.20;;;;;;5009915;28;19984;-64
2024/01/21 10:16:12;;;;;;;;;;;1.70;66.90;;;;;;5018187;28;19936;-64
2024/01/21 10:18:45;;;;;;;;;;;1.80;64.70;;;;;;5020895;28;20721;-64
2024/01/21 10:21:12;;;;;;;;;;;1.80;64.30;;;;;;5017143;28;20083;-64
2024/01/21 10:23:40;;;;;;;;;;;1.80;64.90;;;;;;5019834;28;19936;-64
2024/01/21 10:26:08;;;;;;;;;;;1.80;63.20;;;;;;5018962;28;19940;-64
2024/01/21 10:28:35;;;;;;;;;;;1.80;65.30;;;;;;5018494;28;20424;-64
2024/01/21 10:31:01;;;;;;;;;;;1.80;64.70;;;;;;5017577;28;19929;-64
2024/01/21 10:33:29;;;;;;;;;;;1.80;68.20;;;;;;5015641;28;19928;-64
2024/01/21 10:36:00;;;;;;;;;;;1.80;67.60;;;;;;4997017;28;20317;-64
2024/01/21 10:38:36;;;;;;;;;;;1.80;62.00;;;;;;5016218;28;20112;-64
2024/01/21 10:41:03;;;;;;;;;;;1.80;66.90;;;;;;5013340;28;19933;-63
2024/01/21 10:43:32;;;;;;;;;;;1.80;63.60;;;;;;5016875;28;19948;-65
2024/01/21 10:45:59;;;;;;;;;;;1.80;68.50;;;;;;5017620;28;20778;-63
2024/01/21 10:48:26;;;;;;;;;;;1.80;70.10;;;;;;5020568;28;19944;-64
2024/01/21 10:50:54;;;;;;;;;;;1.90;67.10;;;;;;5016932;28;20024;-65
2024/01/21 10:53:23;;;;;;;;;;;1.90;68.40;;;;;;5016505;28;20035;-64
2024/01/21 10:55:51;;;;;;;;;;;1.90;60.80;;;;;;5013009;28;19951;-64
2024/01/21 10:58:18;;;;;;;;;;;1.90;65.20;;;;;;5027041;28;19924;-63
2024/01/21 11:00:45;;;;;;;;;;;1.90;65.90;;;;;;5015276;28;19952;-63
2024/01/21 11:03:26;;;;;;;;;;;1.90;68.60;;;;;;5022366;28;19933;-63
2024/01/21 11:05:57;;;;;;;;;;;1.90;63.00;;;;;;5016974;28;19967;-63
2024/01/21 11:08:25;;;;;;;;;;;1.90;67.30;;;;;;5015032;28;19933;-63
2024/01/21 11:11:12;;;;;;;;;;;1.90;63.50;;;;;;5021139;28;19972;-63
2024/01/21 11:13:46;;;;;;;;;;;2.00;66.70;;;;;;5020407;28;19936;-64
2024/01/21 11:16:22;;;;;;;;;;;2.00;63.90;;;;;;5018406;28;20580;-63
2024/01/21 11:18:49;;;;;;;;;;;2.00;64.60;;;;;;5023610;28;19968;-64
2024/01/21 11:21:20;;;;;;;;;;;2.10;60.60;;;;;;5018262;28;20507;-63
2024/01/21 11:23:59;;;;;;;;;;;2.20;58.30;;;;;;5018076;28;19943;-63
2024/01/21 11:26:27;;;;;;;;;;;2.10;63.60;;;;;;5021982;28;19936;-63
2024/01/21 11:28:56;;;;;;;;;;;2.10;63.00;;;;;;5018860;28;19991;-64
2024/01/21 11:31:23;;;;;;;;;;;2.10;59.70;;;;;;5020960;28;19980;-63
2024/01/21 11:34:06;;;;;;;;;;;2.10;61.10;;;;;;5023269;28;19929;-64
2024/01/21 11:36:33;;;;;;;;;;;2.10;61.50;;;;;;5022121;28;19933;-67
2024/01/21 11:39:00;;;;;;;;;;;2.20;58.40;;;;;;5023068;28;19933;-63
2024/01/21 11:41:37;;;;;;;;;;;2.20;59.30;;;;;;5025117;28;19929;-63
2024/01/21 11:44:09;;;;;;;;;;;2.20;60.90;;;;;;5023704;28;19933;-62
2024/01/21 11:46:37;;;;;;;;;;;2.20;61.30;;;;;;5021590;28;19965;-64
2024/01/21 11:49:08;;;;;;;;;;;2.20;61.60;;;;;;5018072;28;19983;-63
2024/01/21 11:51:35;;;;;;;;;;;2.30;64.70;;;;;;5016291;28;19999;-63
2024/01/21 11:54:02;;;;;;;;;;;2.30;61.40;;;;;;5020047;28;20660;-69
2024/01/21 11:56:29;;;;;;;;;;;2.30;60.80;;;;;;5021566;28;19929;-69
2024/01/21 11:58:57;;;;;;;;;;;2.40;63.60;;;;;;5022458;28;19936;-69
2024/01/21 12:01:25;;;;;;;;;;;2.40;62.40;;;;;;5019892;28;19926;-71
2024/01/21 12:03:51;;;;;;;;;;;2.50;60.90;;;;;;5020272;28;20643;-70
2024/01/21 12:06:19;;;;;;;;;;;2.50;63.90;;;;;;5025354;28;19932;-69
2024/01/21 12:08:46;;;;;;;;;;;2.50;62.00;;;;;;5007106;28;19935;-70
2024/01/21 12:11:13;;;;;;;;;;;2.50;61.90;;;;;;5018338;28;19934;-69
2024/01/21 12:13:40;;;;;;;;;;;2.60;62.20;;;;;;5014248;28;19926;-68
2024/01/21 12:16:08;;;;;;;;;;;2.50;61.10;;;;;;5019272;28;20361;-69
2024/01/21 12:18:37;;;;;;;;;;;2.60;62.80;;;;;;5021625;28;19929;-69
2024/01/21 12:21:04;;;;;;;;;;;2.60;62.90;;;;;;5015896;28;20489;-69
2024/01/21 12:23:31;;;;;;;;;;;2.60;61.10;;;;;;5023009;28;20002;-70
2024/01/21 12:25:59;;;;;;;;;;;2.70;61.30;;;;;;5025655;28;19972;-69
2024/01/21 12:28:26;;;;;;;;;;;2.70;63.30;;;;;;5025635;28;20038;-69
2024/01/21 12:30:53;;;;;;;;;;;2.70;62.60;;;;;;5023213;28;20026;-69
2024/01/21 12:33:20;;;;;;;;;;;2.80;61.70;;;;;;5020692;28;20408;-68
2024/01/21 12:35:47;;;;;;;;;;;2.80;61.40;;;;;;5015853;28;20024;-69
2024/01/21 12:38:15;;;;;;;;;;;2.90;62.00;;;;;;5018167;28;19969;-69
2024/01/21 12:40:42;;;;;;;;;;;2.90;63.30;;;;;;5020574;28;19933;-70
2024/01/21 12:43:09;;;;;;;;;;;2.90;60.80;;;;;;5018121;28;20025;-69
2024/01/21 12:45:36;;;;;;;;;;;3.00;61.00;;;;;;5018956;28;20030;-69
2024/01/21 12:48:03;;;;;;;;;;;3.00;60.30;;;;;;5022579;28;19933;-70
2024/01/21 12:50:30;;;;;;;;;;;2.90;58.60;;;;;;5015507;28;19984;-69
2024/01/21 12:52:57;;;;;;;;;;;2.80;58.60;;;;;;5012256;28;20308;-69
2024/01/21 12:55:24;;;;;;;;;;;2.80;59.50;;;;;;5015883;28;20536;-69
2024/01/21 12:57:51;;;;;;;;;;;2.70;61.60;;;;;;5024414;28;19937;-70
2024/01/21 13:00:20;;;;;;;;;;;2.70;60.30;;;;;;4960675;28;1818454;-70
2024/01/21 13:02:46;;;;;;;;;;;2.70;61.90;;;;;;5024495;28;19929;-69
2024/01/21 13:05:15;;;;;;;;;;;2.70;62.80;;;;;;5024690;28;19983;-70
2024/01/21 13:07:42;;;;;;;;;;;2.80;61.10;;;;;;5025735;28;20038;-69
2024/01/21 13:10:09;;;;;;;;;;;2.80;64.10;;;;;;5026205;28;19928;-69
2024/01/21 13:12:35;;;;;;;;;;;2.90;65.50;;;;;;5025959;28;20104;-68
2024/01/21 13:15:02;;;;;;;;;;;3.00;60.30;;;;;;5023867;28;19932;-70
2024/01/21 13:17:29;;;;;;;;;;;3.00;62.20;;;;;;5021779;28;20810;-70
2024/01/21 13:19:56;;;;;;;;;;;3.00;63.10;;;;;;5025632;28;19929;-69
2024/01/21 13:22:22;;;;;;;;;;;2.90;64.60;;;;;;5025491;28;19950;-69
2024/01/21 13:24:49;;;;;;;;;;;2.80;61.40;;;;;;5024590;28;19929;-69
2024/01/21 13:27:26;;;;;;;;;;;2.80;67.50;;;;;;5020639;28;20035;-69
2024/01/21 13:32:40;;;;;;;;;;;2.60;77.80;;;;;;5018812;28;19937;-69
2024/01/21 13:35:07;;;;;;;;;;;2.60;79.30;;;;;;5021768;28;19933;-69
2024/01/21 13:37:34;;;;;;;;;;;2.40;76.30;;;;;;5019354;28;19933;-69
2024/01/21 13:40:01;;;;;;;;;;;2.40;74.60;;;;;;5015257;28;19936;-69
2024/01/21 13:42:28;;;;;;;;;;;2.40;75.90;;;;;;5020057;28;19983;-68
2024/01/21 13:44:55;;;;;;;;;;;2.40;74.10;;;;;;5022730;28;19940;-69
2024/01/21 13:47:21;;;;;;;;;;;2.40;73.70;;;;;;5020898;28;19983;-69
2024/01/21 13:49:48;;;;;;;;;;;2.50;74.40;;;;;;5016323;28;19938;-68
2024/01/21 13:52:16;;;;;;;;;;;2.40;71.70;;;;;;5014046;28;20400;-69
2024/01/21 13:54:43;;;;;;;;;;;2.40;72.60;;;;;;5017767;28;19929;-68
2024/01/21 13:57:10;;;;;;;;;;;2.50;67.90;;;;;;5018365;28;20020;-68
2024/01/21 13:59:39;;;;;;;;;;;2.50;70.30;;;;;;5023960;28;19979;-68
2024/01/21 14:02:09;;;;;;;;;;;2.50;70.60;;;;;;5024911;28;20015;-68
2024/01/21 14:04:41;;;;;;;;;;;2.50;74.10;;;;;;5022567;28;19930;-68
2024/01/21 14:07:08;;;;;;;;;;;2.50;70.50;;;;;;5022588;28;19929;-68
2024/01/21 14:09:35;;;;;;;;;;;2.50;73.50;;;;;;5021265;28;19937;-68
2024/01/21 14:12:02;;;;;;;;;;;2.50;70.10;;;;;;5024472;28;19960;-69
2024/01/21 14:14:29;;;;;;;;;;;2.60;71.70;;;;;;5024806;28;20369;-68
2024/01/21 14:16:56;;;;;;;;;;;2.60;70.40;;;;;;5021143;28;19929;-69
2024/01/21 14:19:23;;;;;;;;;;;2.60;73.60;;;;;;5019607;28;20389;-70